Time;durP1;ratioP1;P1;durP2;ratioP2;P2;SDS_P1;SDS_P2;PMS_P1;PMS_P2;Temp;Humidity;BMP_temperature;BMP_pressure;BME280_temperature;BME280_humidity;BME280_pressure;Samples;Min_cycle;Max_cycle;Signal;HPM_P1;HPM_P2
2021/11/09 00:01:50;;;;;;;12.00;9.27;;;;;;;-0.24;100.00;96626.25;5071731;28;24422;-73
2021/11/09 00:04:16;;;;;;;13.63;10.15;;;;;;;-0.22;100.00;96621.13;5071462;28;24952;-74
2021/11/09 00:06:47;;;;;;;12.25;9.60;;;;;;;-0.20;100.00;96619.44;5071241;28;24965;-73
2021/11/09 00:09:16;;;;;;;15.45;9.45;;;;;;;-0.20;100.00;96616.88;5071418;28;24465;-73
2021/11/09 00:11:42;;;;;;;17.30;9.55;;;;;;;-0.16;100.00;96623.63;5071622;28;24450;-74
2021/11/09 00:14:11;;;;;;;10.63;9.35;;;;;;;-0.18;100.00;96617.72;5071497;28;24430;-74
2021/11/09 00:16:38;;;;;;;17.25;10.20;;;;;;;-0.21;100.00;96613.50;5071220;28;24437;-73
2021/11/09 00:19:05;;;;;;;12.52;8.98;;;;;;;-0.18;100.00;96610.94;5071414;28;24423;-74
2021/11/09 00:21:32;;;;;;;12.55;8.80;;;;;;;-0.19;100.00;96611.75;5071319;28;24441;-73
2021/11/09 00:24:00;;;;;;;13.95;10.35;;;;;;;-0.22;100.00;96606.72;5071240;28;24978;-74
2021/11/09 00:26:28;;;;;;;16.67;9.90;;;;;;;-0.17;100.00;96607.53;5070976;28;24454;-74
2021/11/09 00:28:55;;;;;;;10.93;8.80;;;;;;;-0.35;100.00;96617.81;5070922;28;24970;-73
2021/11/09 00:31:23;;;;;;;10.27;8.98;;;;;;;-0.43;100.00;96622.97;5071243;28;24523;-74
2021/11/09 00:33:49;;;;;;;13.23;9.50;;;;;;;-0.43;100.00;96624.66;5071199;28;24434;-74
2021/11/09 00:36:16;;;;;;;11.02;8.95;;;;;;;-0.41;100.00;96625.50;5070730;28;24430;-73
2021/11/09 00:38:45;;;;;;;10.73;8.88;;;;;;;-0.37;100.00;96622.94;5070898;28;24521;-73
2021/11/09 00:41:12;;;;;;;12.57;9.75;;;;;;;-0.39;100.00;96622.09;5070761;28;24777;-74
2021/11/09 00:43:39;;;;;;;13.57;10.30;;;;;;;-0.41;100.00;96621.25;5071088;28;24469;-73
2021/11/09 00:46:05;;;;;;;14.23;11.00;;;;;;;-0.50;100.00;96626.41;5070540;28;25058;-73
2021/11/09 00:48:33;;;;;;;17.73;11.50;;;;;;;-0.47;100.00;96628.09;5070971;28;24422;-74
2021/11/09 00:51:00;;;;;;;14.88;10.65;;;;;;;-0.45;100.00;96627.22;5070700;28;24427;-74
2021/11/09 00:53:26;;;;;;;13.82;10.38;;;;;;;-0.39;100.00;96628.88;5071128;28;24806;-74
2021/11/09 00:55:54;;;;;;;12.77;9.48;;;;;;;-0.36;100.00;96628.88;5070234;28;24429;-74
2021/11/09 00:58:20;;;;;;;12.07;9.05;;;;;;;-0.36;100.00;96636.50;5070804;28;24496;-74
2021/11/09 01:00:47;;;;;;;14.93;9.63;;;;;;;-0.35;100.00;96628.84;5070315;28;24785;-73
2021/11/09 01:03:15;;;;;;;16.02;7.78;;;;;;;-0.50;100.00;96634.88;5070525;28;24426;-73
2021/11/09 01:05:43;;;;;;;10.13;6.85;;;;;;;-0.64;100.00;96640.91;5069637;28;24407;-75
2021/11/09 01:08:14;;;;;;;10.05;6.38;;;;;;;-0.68;100.00;96642.59;5070426;28;24792;-73
2021/11/09 01:10:43;;;;;;;8.63;5.10;;;;;;;-0.75;100.00;96636.69;5070408;28;24834;-74
2021/11/09 01:13:10;;;;;;;7.07;5.33;;;;;;;-0.64;100.00;96639.19;5070615;28;24422;-74
2021/11/09 01:15:39;;;;;;;6.28;5.25;;;;;;;-0.58;100.00;96646.81;5070104;28;25057;-74
2021/11/09 01:18:06;;;;;;;6.93;5.30;;;;;;;-0.57;100.00;96643.41;5070186;28;24434;-73
2021/11/09 01:20:34;;;;;;;6.90;4.60;;;;;;;-0.52;100.00;96640.81;5070191;28;24426;-74
2021/11/09 01:23:03;;;;;;;8.88;7.30;;;;;;;-0.53;100.00;96645.06;5070172;28;24777;-74
2021/11/09 01:25:30;;;;;;;10.48;7.00;;;;;;;-0.64;100.00;96654.47;5069904;28;25017;-74
2021/11/09 01:27:57;;;;;;;7.00;6.30;;;;;;;-0.69;100.00;96647.72;5070365;28;24526;-74
2021/11/09 01:30:24;;;;;;;7.70;6.32;;;;;;;-0.62;100.00;96649.38;5070120;28;24564;-73
2021/11/09 01:32:52;;;;;;;7.57;6.57;;;;;;;-0.65;100.00;96645.13;5070136;28;24488;-74
2021/11/09 01:35:20;;;;;;;10.18;7.85;;;;;;;-0.62;100.00;96650.22;5069704;28;24423;-75
2021/11/09 01:37:47;;;;;;;10.52;7.70;;;;;;;-0.59;100.00;96641.72;5070341;28;24883;-75
2021/11/09 01:40:15;;;;;;;13.43;10.20;;;;;;;-0.60;100.00;96643.41;5070207;28;24513;-75
2021/11/09 01:42:42;;;;;;;16.35;11.02;;;;;;;-0.65;100.00;96644.31;5070249;28;24415;-75
2021/11/09 01:45:11;;;;;;;10.02;8.02;;;;;;;-0.75;100.00;96641.78;5069894;28;24415;-75
2021/11/09 01:47:37;;;;;;;12.38;8.15;;;;;;;-0.79;100.00;96642.66;5070058;28;24410;-75
2021/11/09 01:50:06;;;;;;;10.70;7.43;;;;;;;-0.78;100.00;96638.41;5069832;28;24425;-75
2021/11/09 01:52:33;;;;;;;11.33;7.50;;;;;;;-0.75;100.00;96640.94;5070105;28;24406;-75
2021/11/09 01:55:00;;;;;;;5.90;4.93;;;;;;;-0.68;100.00;96636.69;5069872;28;24438;-75
2021/11/09 01:57:28;;;;;;;5.85;4.70;;;;;;;-0.74;100.00;96638.41;5070022;28;24437;-75
2021/11/09 01:59:58;;;;;;;7.43;4.57;;;;;;;-0.72;100.00;96638.38;5088326;23;24474;-73
2021/11/09 02:02:24;;;;;;;5.57;4.18;;;;;;;-0.66;100.00;96640.91;5083075;28;24433;-73
2021/11/09 02:04:51;;;;;;;5.00;4.38;;;;;;;-0.68;100.00;96639.22;5089787;28;24460;-73
2021/11/09 02:07:17;;;;;;;6.22;4.07;;;;;;;-0.73;100.00;96646.88;5090361;28;24410;-73
2021/11/09 02:09:44;;;;;;;6.10;4.10;;;;;;;-0.84;100.00;96649.47;5083927;28;24441;-73
2021/11/09 02:12:10;;;;;;;7.05;4.47;;;;;;;-0.95;100.00;96650.38;5090644;28;24990;-73
2021/11/09 02:14:38;;;;;;;4.80;4.30;;;;;;;-1.03;100.00;96640.22;5089847;28;24421;-73
2021/11/09 02:17:06;;;;;;;5.90;4.10;;;;;;;-0.93;100.00;96652.03;5090657;28;24453;-72
2021/11/09 02:19:32;;;;;;;7.32;4.57;;;;;;;-0.88;100.00;96652.88;5094118;28;24445;-72
2021/11/09 02:22:00;;;;;;;6.35;5.03;;;;;;;-0.85;100.00;96650.31;5094154;28;24414;-73
2021/11/09 02:24:27;;;;;;;6.90;4.90;;;;;;;-0.85;100.00;96655.41;5093788;28;24413;-73
2021/11/09 02:26:53;;;;;;;7.07;5.60;;;;;;;-0.82;100.00;96647.75;5094049;28;24448;-73
2021/11/09 02:29:20;;;;;;;8.27;5.95;;;;;;;-0.85;100.00;96660.50;5093743;28;24450;-73
2021/11/09 02:31:46;;;;;;;7.68;5.75;;;;;;;-0.82;100.00;96657.06;5102436;28;24433;-73
2021/11/09 02:34:13;;;;;;;5.97;4.50;;;;;;;-0.68;100.00;96654.47;5093693;28;24977;-73
2021/11/09 02:36:40;;;;;;;6.32;5.13;;;;;;;-0.53;100.00;96659.50;5093667;28;24420;-72
2021/11/09 02:39:08;;;;;;;5.80;4.97;;;;;;;-0.59;100.00;96659.53;5093768;28;24446;-72
2021/11/09 02:41:34;;;;;;;6.47;5.47;;;;;;;-0.77;100.00;96652.84;5093533;28;24434;-73
2021/11/09 02:44:01;;;;;;;6.93;5.80;;;;;;;-0.80;100.00;96663.03;5093520;28;24429;-72
2021/11/09 02:49:08;;;;;;;9.52;6.60;;;;;;;-0.92;100.00;96663.91;5093732;28;24463;-73
2021/11/09 02:51:39;;;;;;;8.65;6.88;;;;;;;-0.85;100.00;96660.50;5093608;28;24513;-73
2021/11/09 02:54:12;;;;;;;12.27;7.75;;;;;;;-0.81;100.00;96669.81;5093451;28;24529;-73
2021/11/09 02:56:43;;;;;;;9.67;8.27;;;;;;;-0.75;100.00;96672.31;5093082;28;24497;-72
2021/11/09 02:59:21;;;;;;;9.55;7.07;;;;;;;-0.66;100.00;96665.50;5093483;28;24550;-73
2021/11/09 03:01:53;;;;;;;10.02;6.28;;;;;;;-0.62;100.00;96665.47;5093663;28;24429;-73
2021/11/09 03:04:29;;;;;;;9.50;5.85;;;;;;;-0.60;100.00;96665.47;5093259;28;24522;-73
2021/11/09 03:07:00;;;;;;;7.22;5.10;;;;;;;-0.67;100.00;96666.34;5093036;28;24425;-72
2021/11/09 03:09:39;;;;;;;9.40;5.15;;;;;;;-0.72;100.00;96668.91;5101599;28;24469;-72
2021/11/09 03:12:09;;;;;;;5.40;4.75;;;;;;;-0.73;100.00;96669.78;5093156;28;25079;-73
2021/11/09 03:14:36;;;;;;;6.00;4.93;;;;;;;-0.78;100.00;96671.47;5093052;28;25010;-73
2021/11/09 03:17:11;;;;;;;6.35;4.72;;;;;;;-0.68;100.00;96659.56;5092949;28;24434;-74
2021/11/09 03:19:40;;;;;;;5.20;4.70;;;;;;;-0.66;100.00;96661.25;5092752;28;24449;-73
2021/11/09 03:44:25;;;;;;;7.93;5.07;;;;;;;-0.81;100.00;96652.00;5092556;28;24425;-73
2021/11/09 03:46:56;;;;;;;6.95;5.28;;;;;;;-0.93;100.00;96654.56;5092468;28;24422;-73
2021/11/09 03:49:26;;;;;;;7.43;5.65;;;;;;;-0.96;100.00;96657.16;5092741;28;24449;-73
2021/11/09 03:51:54;;;;;;;6.13;4.90;;;;;;;-0.96;100.00;96659.69;5092428;28;24817;-73
2021/11/09 03:54:27;;;;;;;6.67;4.63;;;;;;;-0.93;100.00;96667.28;5092367;28;24526;-72
2021/11/09 03:57:01;;;;;;;6.45;4.75;;;;;;;-0.91;100.00;96662.22;5092287;28;24422;-72
2021/11/09 03:59:43;;;;;;;6.10;4.47;;;;;;;-0.87;100.00;96653.72;5091865;28;25105;-72
2021/11/09 04:02:17;;;;;;;5.57;4.40;;;;;;;-0.88;100.00;96657.97;5092044;28;24795;-72
2021/11/09 04:04:47;;;;;;;9.50;5.57;;;;;;;-0.87;100.00;96652.00;5091735;28;24460;-73
2021/11/09 04:07:17;;;;;;;7.10;5.05;;;;;;;-0.97;100.00;96656.28;5092072;28;24525;-72
2021/11/09 04:15:44;;;;;;;14.90;6.60;;;;;;;-1.01;100.00;96661.38;5077929;28;24437;-72
2021/11/09 04:29:25;;;;;;;10.05;7.32;;;;;;;-1.16;100.00;96658.91;5089465;28;24449;-72
2021/11/09 05:10:33;;;;;;;16.67;9.13;;;;;;;-1.46;100.00;96656.41;5086383;28;24525;-74
2021/11/09 05:13:00;;;;;;;10.55;7.35;;;;;;;-1.50;100.00;96664.06;5090586;28;24812;-75
2021/11/09 05:15:27;;;;;;;12.45;8.40;;;;;;;-1.56;100.00;96657.28;5090231;28;24521;-75
2021/11/09 05:17:55;;;;;;;17.38;9.00;;;;;;;-1.56;100.00;96659.84;5090538;28;24971;-75
2021/11/09 05:20:22;;;;;;;15.18;8.63;;;;;;;-1.58;100.00;96653.91;5089872;28;24531;-75
2021/11/09 05:22:48;;;;;;;16.25;9.73;;;;;;;-1.54;100.00;96652.19;5090635;28;25039;-75
2021/11/09 05:25:15;;;;;;;13.32;8.60;;;;;;;-1.48;100.00;96653.03;5070300;28;24796;-75
2021/11/09 05:27:42;;;;;;;14.80;8.65;;;;;;;-1.49;100.00;96660.66;5070769;28;24419;-75
2021/11/09 05:30:09;;;;;;;13.18;9.15;;;;;;;-1.49;100.00;96668.28;5070276;28;24416;-75
2021/11/09 05:32:36;;;;;;;14.50;9.20;;;;;;;-1.49;100.00;96668.28;5070364;28;24434;-75
2021/11/09 05:35:05;;;;;;;14.20;9.88;;;;;;;-1.42;100.00;96659.78;5069753;28;24417;-75
2021/11/09 05:37:37;;;;;;;16.17;9.25;;;;;;;-1.39;100.00;96664.03;5087992;28;25048;-75
2021/11/09 05:40:06;;;;;;;16.92;9.85;;;;;;;-1.48;100.00;96670.00;5090362;28;24446;-76
2021/11/09 05:42:33;;;;;;;14.27;9.02;;;;;;;-1.53;100.00;96669.13;5090479;28;24487;-75
2021/11/09 05:45:00;;;;;;;14.45;9.10;;;;;;;-1.41;100.00;96668.25;5090217;28;24422;-75
2021/11/09 05:47:27;;;;;;;15.80;8.43;;;;;;;-1.36;100.00;96662.34;5090216;28;24434;-75
2021/11/09 05:49:54;;;;;;;16.58;8.43;;;;;;;-1.51;100.00;96670.00;5090291;28;24422;-75
2021/11/09 05:52:22;;;;;;;13.57;7.88;;;;;;;-1.73;100.00;96669.16;5093634;28;24429;-75
2021/11/09 05:54:48;;;;;;;11.90;7.78;;;;;;;-1.75;100.00;96670.84;5094230;28;24434;-74
2021/11/09 05:57:15;;;;;;;15.98;9.10;;;;;;;-1.77;100.00;96673.38;5094102;28;24422;-75
2021/11/09 05:59:42;;;;;;;13.80;8.57;;;;;;;-1.78;100.00;96673.38;5094043;28;24462;-75
2021/11/09 06:02:08;;;;;;;15.07;9.02;;;;;;;-1.79;100.00;96672.53;5093693;28;24479;-75
2021/11/09 06:04:35;;;;;;;12.20;8.73;;;;;;;-1.80;100.00;96675.09;5094174;28;24418;-75
2021/11/09 06:07:02;;;;;;;9.30;7.05;;;;;;;-1.77;100.00;96678.47;5094060;28;24453;-75
2021/11/09 06:09:30;;;;;;;6.75;5.95;;;;;;;-1.73;100.00;96680.16;5093996;28;24420;-75
2021/11/09 06:11:56;;;;;;;12.57;5.97;;;;;;;-1.78;100.00;96674.25;5094160;28;24422;-75
2021/11/09 06:14:23;;;;;;;40.95;4.40;;;;;;;-2.06;100.00;96680.16;5093972;28;24429;-74
2021/11/09 06:16:49;;;;;;;28.92;3.58;;;;;;;-2.23;100.00;96677.56;5094125;28;24435;-75
2021/11/09 06:19:16;;;;;;;26.25;3.63;;;;;;;-2.33;100.00;96678.41;5094147;28;24449;-74
2021/11/09 06:21:42;;;;;;;16.15;3.40;;;;;;;-2.35;100.00;96680.09;5094117;28;24433;-74
2021/11/09 06:24:09;;;;;;;8.07;3.22;;;;;;;-2.47;100.00;96681.75;5093828;28;24787;-75
2021/11/09 06:26:37;;;;;;;4.32;3.50;;;;;;;-2.53;100.00;96688.50;5093630;28;24943;-75
2021/11/09 06:29:06;;;;;;;3.88;3.47;;;;;;;-2.39;100.00;96689.38;5093643;28;24483;-75
2021/11/09 06:31:33;;;;;;;5.68;3.67;;;;;;;-2.18;100.00;96692.81;5093624;28;24426;-74
2021/11/09 06:33:59;;;;;;;8.50;4.82;;;;;;;-2.08;100.00;96697.06;5093928;28;24425;-74
2021/11/09 06:36:26;;;;;;;7.57;4.72;;;;;;;-2.14;100.00;96708.06;5093168;28;24449;-72
2021/11/09 06:38:53;;;;;;;9.65;5.60;;;;;;;-2.08;100.00;96708.03;5093689;28;24450;-74
2021/11/09 06:41:19;;;;;;;14.73;5.43;;;;;;;-2.10;100.00;96704.69;5093278;28;24525;-75
2021/11/09 06:43:47;;;;;;;8.02;5.20;;;;;;;-2.16;100.00;96709.72;5093172;28;24437;-75
2021/11/09 06:46:14;;;;;;;7.47;5.32;;;;;;;-2.15;100.00;96708.91;5093423;28;24430;-74
2021/11/09 06:48:41;;;;;;;10.32;5.72;;;;;;;-2.10;100.00;96719.06;5094545;28;24434;-76
2021/11/09 06:51:08;;;;;;;9.87;5.70;;;;;;;-2.04;100.00;96721.59;5093435;28;24551;-72
2021/11/09 06:53:34;;;;;;;9.15;6.38;;;;;;;-2.08;100.00;96722.44;5093227;28;24429;-68
2021/11/09 06:56:01;;;;;;;9.98;6.10;;;;;;;-1.98;100.00;96716.53;5092811;28;24437;-73
2021/11/09 06:58:27;;;;;;;10.73;6.63;;;;;;;-1.92;100.00;96718.25;5093143;28;24425;-71
2021/11/09 07:00:55;;;;;;;15.30;6.95;;;;;;;-1.79;100.00;96720.78;5093093;28;24434;-73
2021/11/09 07:03:22;;;;;;;18.92;10.65;;;;;;;-1.65;100.00;96719.94;5091864;28;24438;-72
2021/11/09 07:05:49;;;;;;;19.58;9.90;;;;;;;-1.66;100.00;96728.41;5092019;28;24794;-72
2021/11/09 07:08:15;;;;;;;16.58;9.45;;;;;;;-1.45;100.00;96730.94;5092659;28;24475;-73
2021/11/09 07:10:43;;;;;;;13.88;8.38;;;;;;;-1.26;100.00;96726.69;5093091;28;24425;-74
2021/11/09 07:13:10;;;;;;;13.70;8.95;;;;;;;-1.02;100.00;96725.81;5092922;28;24437;-74
2021/11/09 07:15:37;;;;;;;13.23;8.87;;;;;;;-0.89;100.00;96731.69;5093100;28;24458;-75
2021/11/09 07:18:07;;;;;;;17.08;8.50;;;;;;;-0.83;100.00;96731.69;5093289;28;24414;-72
2021/11/09 07:20:36;;;;;;;15.40;9.45;;;;;;;-0.76;100.00;96736.75;5093022;28;24468;-75
2021/11/09 07:23:03;;;;;;;15.43;9.05;;;;;;;-0.55;100.00;96735.84;5093174;28;24484;-75
2021/11/09 07:25:31;;;;;;;21.55;9.25;;;;;;;-0.31;100.00;96746.78;5092597;28;24420;-75
2021/11/09 07:27:57;;;;;;;19.00;10.90;;;;;;;-0.07;100.00;96743.28;5093096;28;24422;-75
2021/11/09 07:30:28;;;;;;;23.98;13.05;;;;;;;0.12;100.00;96751.66;5092602;28;24788;-75
2021/11/09 07:32:55;;;;;;;33.95;13.55;;;;;;;0.29;100.00;96751.53;5092880;28;24473;-75
2021/11/09 07:35:23;;;;;;;19.63;12.60;;;;;;;0.29;100.00;96759.16;5092688;28;24549;-74
2021/11/09 07:37:49;;;;;;;23.15;12.25;;;;;;;0.43;100.00;96758.22;5093298;28;24414;-74
2021/11/09 07:40:16;;;;;;;23.58;12.00;;;;;;;0.56;100.00;96766.63;5092670;28;24465;-74
2021/11/09 07:42:47;;;;;;;21.13;11.90;;;;;;;0.72;100.00;96760.53;5092788;28;24429;-75
2021/11/09 07:45:16;;;;;;;21.87;11.50;;;;;;;0.89;100.00;96751.88;5092359;28;24505;-76
2021/11/09 07:47:42;;;;;;;18.23;11.75;;;;;;;1.04;100.00;96754.31;5092325;28;25008;-75
2021/11/09 07:50:09;;;;;;;17.83;11.40;;;;;;;1.15;100.00;96749.06;5092256;28;24669;-74
2021/11/09 07:52:37;;;;;;;21.95;11.85;;;;;;;1.27;100.00;96751.53;5092506;28;24962;-74
2021/11/09 07:55:06;;;;;;;18.13;10.88;;;;;;;1.33;100.00;96760.81;5091774;28;24426;-76
2021/11/09 07:57:42;;;;;;;20.77;11.32;;;;;;;1.37;100.00;96765.00;5092286;28;24426;-76
2021/11/09 08:00:21;;;;;;;16.88;10.30;;;;;;;1.41;100.00;96759.03;5095442;23;24521;-72
2021/11/09 08:02:59;;;;;;;14.60;10.20;;;;;;;1.49;100.00;96754.69;5051855;28;24435;-73
2021/11/09 08:05:30;;;;;;;18.50;10.13;;;;;;;1.49;100.00;96754.69;5051415;28;24419;-72
2021/11/09 08:08:03;;;;;;;13.90;9.63;;;;;;;1.59;100.00;96763.91;5051914;28;24427;-72
2021/11/09 08:10:30;;;;;;;16.02;8.57;;;;;;;1.66;100.00;96767.25;5059250;28;24423;-72
2021/11/09 08:12:56;;;;;;;10.10;7.50;;;;;;;1.75;100.00;96756.94;5071785;28;24430;-75
2021/11/09 08:15:23;;;;;;;13.75;6.72;;;;;;;1.82;100.00;96767.94;5071199;28;24445;-75
2021/11/09 08:17:49;;;;;;;11.00;7.07;;;;;;;1.86;100.00;96757.63;5071711;28;24415;-75
2021/11/09 08:20:15;;;;;;;12.05;7.22;;;;;;;2.00;100.00;96759.16;5071510;28;24458;-75
2021/11/09 08:22:42;;;;;;;7.72;6.20;;;;;;;2.13;100.00;96753.88;5071421;28;24971;-75
2021/11/09 08:25:10;;;;;;;10.00;6.43;;;;;;;2.25;100.00;96765.63;5071354;28;24415;-75
2021/11/09 08:27:36;;;;;;;12.13;6.73;;;;;;;2.36;100.00;96766.31;5071577;28;24425;-75
2021/11/09 08:30:03;;;;;;;9.13;6.30;;;;;;;2.51;100.00;96762.69;5070786;28;24431;-75
2021/11/09 08:32:30;;;;;;;8.52;6.50;;;;;;;2.70;100.00;96759.84;5071216;28;24977;-75
2021/11/09 08:34:56;;;;;;;9.85;6.60;;;;;;;2.94;100.00;96756.06;5071172;28;24418;-75
2021/11/09 08:37:23;;;;;;;8.48;6.47;;;;;;;3.06;100.00;96764.34;5071013;28;24434;-74
2021/11/09 08:39:49;;;;;;;10.53;7.17;;;;;;;3.27;100.00;96759.72;5070827;28;25010;-74
2021/11/09 08:42:22;;;;;;;9.85;6.88;;;;;;;3.44;100.00;96756.84;5071109;28;24971;-74
2021/11/09 08:44:52;;;;;;;10.30;6.40;;;;;;;3.46;100.00;96755.94;5071214;28;24414;-74
2021/11/09 08:47:21;;;;;;;10.82;6.90;;;;;;;3.51;99.64;96745.63;5071183;28;25041;-75
2021/11/09 08:49:50;;;;;;;10.70;7.38;;;;;;;3.57;100.00;96746.34;5071183;28;24796;-75
2021/11/09 08:52:17;;;;;;;10.43;6.93;;;;;;;3.84;100.00;96742.38;5070995;28;24422;-75
2021/11/09 08:54:53;;;;;;;11.02;7.53;;;;;;;4.13;100.00;96740.91;5070686;28;24434;-75
2021/11/09 08:57:46;;;;;;;13.70;8.25;;;;;;;3.74;100.00;96737.47;5070820;28;24963;-75
2021/11/09 09:05:43;;;;;;;16.33;8.70;;;;;;;4.09;100.00;96740.13;5070038;28;24430;-74
2021/11/09 09:08:09;;;;;;;11.37;8.07;;;;;;;4.52;100.00;96744.28;5070867;28;24453;-74
2021/11/09 09:10:36;;;;;;;15.68;7.80;;;;;;;4.79;100.00;96740.25;5070669;28;24429;-74
2021/11/09 09:13:04;;;;;;;13.65;7.90;;;;;;;5.09;100.00;96736.06;5070600;28;24422;-74
2021/11/09 09:15:31;;;;;;;9.80;6.55;;;;;;;5.50;100.00;96740.97;5070216;28;24423;-75
2021/11/09 09:17:58;;;;;;;12.98;7.45;;;;;;;5.77;98.97;96747.06;5070422;28;24425;-75
2021/11/09 09:20:27;;;;;;;12.20;6.22;;;;;;;6.03;95.79;96743.78;5070423;28;24511;-75
2021/11/09 09:23:02;;;;;;;11.73;4.85;;;;;;;6.08;91.23;96741.91;5070851;28;24513;-75
2021/11/09 09:25:41;;;;;;;14.35;4.90;;;;;;;5.96;89.81;96737.13;5070182;28;24514;-74
2021/11/09 09:28:28;;;;;;;12.93;5.50;;;;;;;5.89;90.34;96740.75;5070539;28;24510;-74
2021/11/09 09:31:10;;;;;;;11.57;5.27;;;;;;;6.06;91.95;96738.56;5070461;28;24426;-73
2021/11/09 09:53:14;;;;;;;8.68;4.90;;;;;;;6.71;90.69;96746.00;5070212;28;24464;-75
2021/11/09 09:55:40;;;;;;;11.35;5.20;;;;;;;6.86;87.65;96741.22;5070041;28;24414;-75
2021/11/09 09:58:10;;;;;;;11.98;5.07;;;;;;;6.95;85.25;96728.06;5070364;28;24422;-75
2021/11/09 10:00:38;;;;;;;13.10;5.05;;;;;;;7.09;84.98;96730.19;5070104;28;24484;-76
2021/11/09 10:03:06;;;;;;;11.93;4.73;;;;;;;7.02;82.77;96740.69;5070204;28;24559;-76
2021/11/09 10:05:35;;;;;;;12.63;5.13;;;;;;;7.16;84.33;96739.41;5069439;28;24422;-76
2021/11/09 10:08:09;;;;;;;10.15;4.63;;;;;;;7.12;89.23;96745.50;5069746;28;24468;-75
2021/11/09 10:10:35;;;;;;;21.57;5.30;;;;;;;7.25;86.80;96736.50;5070151;28;24986;-76
2021/11/09 10:13:08;;;;;;;10.40;4.95;;;;;;;7.44;88.97;96736.69;5070223;28;24776;-76
2021/11/09 10:15:35;;;;;;;12.10;5.32;;;;;;;7.37;86.34;96737.78;5070236;28;24427;-77
2021/11/09 10:18:06;;;;;;;14.07;5.32;;;;;;;7.31;84.58;96738.03;5070367;28;24423;-78
2021/11/09 10:20:36;;;;;;;10.30;5.18;;;;;;;7.35;84.26;96740.44;5069758;28;24454;-77
2021/11/09 10:23:05;;;;;;;13.93;5.20;;;;;;;7.37;86.73;96732.66;5070043;28;24433;-78
2021/11/09 10:25:32;;;;;;;7.90;4.63;;;;;;;7.54;88.03;96743.22;5069889;28;24418;-77
2021/11/09 10:28:03;;;;;;;10.63;5.22;;;;;;;7.54;82.37;96734.66;5069961;28;24425;-77
2021/11/09 10:30:32;;;;;;;15.40;5.50;;;;;;;7.63;83.85;96726.56;5069851;28;24518;-77
2021/11/09 10:32:59;;;;;;;8.80;4.45;;;;;;;7.36;83.56;96723.25;5069752;28;24468;-77
2021/11/09 10:35:28;;;;;;;13.33;4.20;;;;;;;7.08;84.87;96725.91;5069425;28;24472;-77
2021/11/09 10:37:57;;;;;;;9.68;4.32;;;;;;;6.94;83.35;96719.50;5070442;28;24522;-76
2021/11/09 10:40:26;;;;;;;9.88;4.20;;;;;;;6.95;87.56;96712.63;5073321;28;24454;-76
2021/11/09 10:42:55;;;;;;;8.20;4.25;;;;;;;7.06;86.11;96718.25;5073426;28;24788;-77
2021/11/09 10:45:24;;;;;;;17.58;4.97;;;;;;;7.11;84.79;96730.97;5073230;28;24423;-77
2021/11/09 10:47:52;;;;;;;14.48;4.75;;;;;;;7.19;85.84;96718.66;5073602;28;24429;-77
2021/11/09 10:50:22;;;;;;;8.63;3.97;;;;;;;7.19;85.39;96719.53;5073337;28;24425;-77
2021/11/09 10:53:12;;;;;;;10.35;3.92;;;;;;;7.23;86.39;96723.69;5073797;28;24454;-78
2021/11/09 10:55:45;;;;;;;12.38;4.88;;;;;;;7.17;86.82;96725.59;5073033;28;24530;-77
2021/11/09 10:58:21;;;;;;;10.57;4.40;;;;;;;7.30;82.82;96713.13;5073534;28;24585;-77
2021/11/09 11:03:17;;;;;;;11.47;4.37;;;;;;;7.21;84.16;96714.31;5072707;28;24544;-76
2021/11/09 11:04:01;;;;;;;10.80;4.68;;;;;;;7.14;84.50;96717.97;5072477;28;24447;-75
2021/11/09 11:06:29;;;;;;;11.77;4.40;;;;;;;7.25;85.72;96715.88;5071980;28;24435;-76
2021/11/09 11:09:00;;;;;;;9.70;4.50;;;;;;;7.07;85.47;96714.75;5072594;28;24979;-76
2021/11/09 11:11:29;;;;;;;11.13;4.15;;;;;;;7.17;85.94;96717.88;5072828;28;24422;-76
2021/11/09 11:14:07;;;;;;;13.15;4.60;;;;;;;7.47;85.59;96711.66;5072798;28;24422;-75
2021/11/09 11:16:40;;;;;;;9.48;4.25;;;;;;;7.16;83.44;96706.75;5072381;28;24500;-75
2021/11/09 11:19:07;;;;;;;10.33;4.23;;;;;;;7.20;84.79;96703.16;5072906;28;24539;-75
2021/11/09 11:21:33;;;;;;;15.32;4.55;;;;;;;7.24;83.84;96702.16;5072434;28;24999;-75
2021/11/09 11:24:01;;;;;;;7.65;3.88;;;;;;;7.21;82.52;96701.41;5072664;28;24421;-75
2021/11/09 11:26:30;;;;;;;9.80;4.00;;;;;;;7.13;84.43;96701.69;5072546;28;24434;-75
2021/11/09 11:28:58;;;;;;;10.20;4.63;;;;;;;7.27;83.46;96707.22;5072586;28;24787;-76
2021/11/09 11:31:27;;;;;;;10.13;4.95;;;;;;;7.48;85.60;96700.44;5072300;28;24418;-76
2021/11/09 11:33:54;;;;;;;16.20;4.32;;;;;;;7.50;83.23;96690.94;5072579;28;24433;-76
2021/11/09 11:36:20;;;;;;;7.78;3.90;;;;;;;7.40;79.79;96686.16;5071720;28;24463;-75
2021/11/09 11:38:53;;;;;;;7.82;4.18;;;;;;;7.48;81.24;96678.97;5072419;28;24434;-76
2021/11/09 11:41:23;;;;;;;9.18;4.05;;;;;;;7.50;85.17;96678.03;5072081;28;24457;-76
2021/11/09 11:43:58;;;;;;;8.85;3.78;;;;;;;7.33;79.97;96672.63;5072280;28;24442;-75
2021/11/09 11:46:46;;;;;;;10.70;4.22;;;;;;;7.45;82.33;96676.50;5072248;28;24417;-75
2021/11/09 11:49:15;;;;;;;12.45;4.32;;;;;;;7.56;81.41;96676.13;5071852;28;25185;-76
2021/11/09 11:52:06;;;;;;;12.43;4.28;;;;;;;7.55;82.46;96669.28;5071937;28;24800;-76
2021/11/09 11:54:46;;;;;;;12.68;4.32;;;;;;;7.48;82.06;96658.38;5071685;28;24952;-74
2021/11/09 11:57:38;;;;;;;7.10;3.65;;;;;;;7.51;82.07;96656.50;5071867;28;24414;-75
2021/11/09 12:00:39;;;;;;;10.05;4.30;;;;;;;7.48;79.58;96660.94;5071838;28;24508;-75
2021/11/09 12:03:36;;;;;;;9.80;3.80;;;;;;;7.63;80.53;96651.81;5071847;28;24918;-76
2021/11/09 12:06:21;;;;;;;11.10;4.63;;;;;;;7.53;79.14;96659.06;5071219;28;24477;-75
2021/11/09 12:08:49;;;;;;;9.48;4.00;;;;;;;7.55;78.94;96661.56;5071392;28;24433;-75
2021/11/09 12:11:36;;;;;;;7.15;4.05;;;;;;;7.67;82.87;96668.84;5071915;28;24419;-75
2021/11/09 12:14:07;;;;;;;9.00;3.80;;;;;;;7.69;79.72;96673.06;5071599;28;24423;-75
2021/11/09 12:16:49;;;;;;;10.82;4.18;;;;;;;7.55;79.70;96671.88;5071377;28;24418;-74
2021/11/09 12:20:04;;;;;;;8.00;3.80;;;;;;;7.53;80.30;96677.09;5071172;28;24481;-75
2021/11/09 12:22:43;;;;;;;10.55;4.22;;;;;;;7.52;80.69;96676.22;5071729;28;24422;-74
2021/11/09 12:25:12;;;;;;;9.32;4.10;;;;;;;7.59;80.57;96663.13;5071072;28;24477;-74
2021/11/09 12:27:59;;;;;;;8.70;3.92;;;;;;;7.69;77.86;96649.00;5071315;28;24433;-74
2021/11/09 12:30:44;;;;;;;10.85;3.97;;;;;;;7.85;80.65;96650.09;5071471;28;24427;-74
2021/11/09 12:33:14;;;;;;;9.90;3.67;;;;;;;7.87;77.38;96650.06;5071382;28;24530;-74
2021/11/09 12:35:41;;;;;;;7.93;3.80;;;;;;;7.75;77.73;96646.22;5070453;28;24426;-75
2021/11/09 12:38:13;;;;;;;14.37;3.70;;;;;;;7.85;77.64;96644.94;5071010;28;24422;-74
2021/11/09 12:40:47;;;;;;;9.40;3.63;;;;;;;7.80;77.06;96656.34;5065475;28;24459;-74
2021/11/09 12:43:17;;;;;;;6.55;3.15;;;;;;;7.78;77.69;96658.97;5051505;28;24490;-74
2021/11/09 12:45:49;;;;;;;11.95;3.60;;;;;;;7.75;76.92;96648.78;5050885;28;24944;-74
2021/11/09 12:48:18;;;;;;;9.60;3.60;;;;;;;7.71;77.87;96647.19;5051152;28;24422;-74
2021/11/09 12:50:51;;;;;;;7.30;3.65;;;;;;;7.78;76.95;96648.66;5051044;28;24419;-74
2021/11/09 12:53:21;;;;;;;7.15;3.38;;;;;;;7.87;76.00;96639.75;5051103;28;24422;-74
2021/11/09 12:55:57;;;;;;;8.35;3.50;;;;;;;7.87;75.64;96640.59;5050862;28;24522;-74
2021/11/09 12:58:27;;;;;;;7.68;3.50;;;;;;;7.89;75.59;96640.50;5050947;28;24424;-74
2021/11/09 13:01:25;;;;;;;9.13;3.90;;;;;;;7.86;74.96;96626.00;5049766;28;24458;-74
2021/11/09 13:04:01;;;;;;;8.05;3.40;;;;;;;7.88;77.49;96634.50;5038523;28;24445;-74
2021/11/09 13:06:52;;;;;;;11.82;3.85;;;;;;;7.91;77.98;96618.94;5059206;28;24484;-74
2021/11/09 13:09:23;;;;;;;7.32;3.22;;;;;;;7.92;75.64;96615.44;5070814;28;24476;-74
2021/11/09 13:11:54;;;;;;;10.80;3.85;;;;;;;7.92;74.34;96619.75;5070826;28;24513;-74
2021/11/09 13:14:22;;;;;;;6.82;3.30;;;;;;;7.97;75.18;96616.13;5070811;28;24789;-74
2021/11/09 13:16:52;;;;;;;9.13;3.85;;;;;;;8.00;72.42;96622.88;5070497;28;24999;-74
2021/11/09 13:19:24;;;;;;;10.13;3.28;;;;;;;8.00;75.95;96623.72;5070532;28;24508;-74
2021/11/09 13:22:07;;;;;;;9.38;3.17;;;;;;;8.07;75.84;96618.31;5070222;28;24512;-74
2021/11/09 13:24:34;;;;;;;13.77;3.53;;;;;;;8.06;73.99;96611.50;5070436;28;24515;-74
2021/11/09 13:27:00;;;;;;;8.57;3.33;;;;;;;8.00;72.39;96607.41;5070475;28;24971;-74